Estación Meteorológica Peña el Pijo (Robertgarden) [ 08/15/18 18:31:22 CEST ]

Fecha Hora Presion(HPa) Temp (°C) Humedad % Rocio (°C) Viento ( m/s) Direccion Lluvia 1Hora(mm) Lluvia 24H(mm) LLuvia Total(mm)
2018-Apr-03 01:01:56 1001.200 7.9 66 1.9         185.44
2018-Apr-03 02:01:40 1001.100 7.3 70 2.2         185.44
2018-Apr-03 03:04:12 1000.700 6.4 72 1.7         185.44
2018-Apr-03 04:01:47 1001.000 6.1 74 1.8         185.44
2018-Apr-03 05:01:55 1000.600 6.9 74 2.6         185.44
2018-Apr-03 06:01:50 1000.300 6.9 74 2.6         185.44
2018-Apr-03 07:01:42 1000.700 6.9 73 2.4         185.44
2018-Apr-03 08:02:00 1000.700 6.3 74 2.0         185.44
2018-Apr-03 09:01:46 1001.200 7.7 74 3.4         185.44
2018-Apr-03 10:01:44 1001.300 12.4 69 6.9         185.44
2018-Apr-03 11:01:42 1001.500 14.8 57 6.3 2.2 WNW     185.44
2018-Apr-03 12:01:42 1001.700 17.4 47 5.9 2.4 SSW     185.44
2018-Apr-03 13:01:51 1001.600 17.8 43 5.0 2.3 W     185.44
2018-Apr-03 14:01:42 1001.400 18.4 38 3.8 2.4 W     185.44
2018-Apr-03 15:02:03 1001.100 19.3 37 4.2         185.44
2018-Apr-03 16:01:47 1000.900 19.2 38 4.5         185.44
2018-Apr-03 17:01:36 1001.000 18.9 38 4.2         185.44
2018-Apr-03 18:01:38 1001.000 17.8 39 3.6         185.44
2018-Apr-03 19:01:50 1001.100 16.1 41 2.8 1.9 NW     185.44
2018-Apr-03 20:01:53 1001.200 13.6 49 3.1         185.44
2018-Apr-03 21:01:37 1001.200 12.1 55 3.3         185.44
2018-Apr-03 22:01:39 1001.900 10.6 61 3.4         185.44
2018-Apr-03 23:01:51 1002.200 9.4 65 3.1         185.44

Temperatura Máxima:19°    Temperatura Mínima:
Presión Máxima:1002.200 Hpa    Presión Mínima:1000.300 Hpa


Volver